My webcam Meer informatie My webcam


Onweer radar Meer informatie blitzortung!


Regen radar Meer informatie rain snow radar


Bezoek ook deze websites:

Template documentation
and downloads

And another site

Leuven-Template Forum

support.leuven-template



Het weer levert geen direct gevaar op.    Er zijn geen waarschuwingen afgegeven.

METAR rapporten vliegvelden

   
EHVK - Volkel Rnlafb, Netherlands
Afstand tot: ZW 18 km
Gewijzigd: 04-07-2020 23:25
Bewolking  
Bewolking  
   Wind: ZZW 24.1 km/h
Wind: ZZW 24.1 km/h
Temperatuur: 18°C
Dauwpunt: 18°C
Vochtigheid: 100%
Barometer: 1011 hPa
Bewolking: Bewolking
Zicht: meer dan 10 km
Bewolking: Licht bewolkt 800 ft,
Gedeeltelijk bewolkt 900 ft,
Bewolking 1000 ft
EHVK 042125Z AUTO 20013KT 170V250 9999 FEW008 SCT009 OVC010 18/18 Q1011 REDZ GRN
EDLV - Niederrhein, Germany
Afstand tot: ZO 25 km
Gewijzigd: 04-07-2020 23:20
Grotendeels bewolkt  
Grotendeels bewolkt  
   Wind: ZZW 20.4 km/h
Wind: ZZW 20.4 km/h
Temperatuur: 19°C
Dauwpunt: 17°C
Vochtigheid: 88%
Barometer: 1012 hPa
Bewolking: Grotendeels bewolkt
Zicht: meer dan 10 km
Bewolking: Grotendeels bewolkt 1100 ft
EDLV 042120Z 21011KT 9999 BKN011 19/17 Q1012
EHDL - Deelen Rnlafb, Netherlands
Afstand tot: N 35 km
Gewijzigd: 04-07-2020 23:25
Heavy Drizzle, Grotendeels bewolkt  
Heavy Drizzle, Grotendeels bewolkt  
   Wind: ZZW 22.2 km/h
Wind: ZZW 22.2 km/h
Temperatuur: 18°C
Dauwpunt: 18°C
Vochtigheid: 100%
Barometer: 1011 hPa
Bewolking: Grotendeels bewolkt
Zicht: 3 km
Bewolking: Licht bewolkt 300 ft,
Gedeeltelijk bewolkt 400 ft,
Grotendeels bewolkt 500 ft
EHDL 042125Z AUTO 21012KT 150V250 3300 +DZ FEW003 SCT004 BKN005 18/18 Q1011 YLO
EHEH - Eindhoven Rnlafb, Netherlands
Afstand tot: ZW 48 km
Gewijzigd: 04-07-2020 23:25
Nevel, Grotendeels bewolkt  
Nevel, Grotendeels bewolkt  
   Wind: ZZW 24.1 km/h
Wind: ZZW 24.1 km/h
Temperatuur: 18°C
Dauwpunt: 18°C
Vochtigheid: 100%
Barometer: 1012 hPa
Bewolking: Grotendeels bewolkt
Zicht: 9 km
Bewolking: Licht bewolkt 700 ft,
Gedeeltelijk bewolkt 800 ft,
Grotendeels bewolkt 1000 ft
EHEH 042125Z AUTO 20013KT 170V240 9000 BR FEW007 SCT008 BKN010 18/18 Q1012 REDZ GRN
EHGR - Gilze-Rijen Rnla, Netherlands
Afstand tot: WZW 70 km
Gewijzigd: 04-07-2020 23:25
Heavy Drizzle, Grotendeels bewolkt  
Heavy Drizzle, Grotendeels bewolkt  
   Wind: ZZW 20.4 km/h
Wind: ZZW 20.4 km/h
Temperatuur: 18°C
Dauwpunt: 18°C
Vochtigheid: 100%
Barometer: 1011 hPa
Bewolking: Grotendeels bewolkt
Zicht: 3 km
Bewolking: Gedeeltelijk bewolkt 500 ft,
Grotendeels bewolkt 600 ft,
Grotendeels bewolkt 800 ft
EHGR 042125Z AUTO 21011KT 160V260 3300 +DZ SCT005 BKN006 BKN008 18/18 Q1011 YLO
EBBL - Kleine-Brogel(Ba, Belgium
Afstand tot: ZZW 71 km
Gewijzigd: 04-07-2020 23:25
Bewolking  
Bewolking  
   Wind: ZZW 18.5 km/h
Wind: ZZW 18.5 km/h
Temperatuur: 18°C
Dauwpunt: 17°C
Vochtigheid: 94%
Barometer: 1013 hPa
Bewolking: Bewolking
Zicht: meer dan 10 km
Bewolking: Bewolking 1200 ft
EBBL 042125Z AUTO 21010KT 9999 OVC012/// 18/17 Q1013 GRN

Script ontwikkeld door  Saratoga-weather.org Aangepast voor de template door  Weerstation Leuven

U vindt ons ook hier:

Het Weer Aktueel

European Weather Network

WeatherCloud

Weather Underground

Benelux Weer Netwerk

AWEKAS

Apparatuur in gebruik:

Weerstation
Davis VP2

Weerprogramma
Meteobridge

Weercomputer
My Computer

Webleverancier
My provider

Davis VP2

Meteobridge

My Computer

My provider